sensor_id;sensor_type;location;lat;lon;timestamp;pressure;altitude;pressure_sealevel;temperature;humidity
56831;BME280;42713;42.676;23.352;2023-02-20T00:00:52;95076.69;;;10.58;51.58
56831;BME280;42713;42.676;23.352;2023-02-20T00:03:19;95078.84;;;10.50;51.89
56831;BME280;42713;42.676;23.352;2023-02-20T00:05:45;95082.63;;;10.54;51.93
56831;BME280;42713;42.676;23.352;2023-02-20T00:08:10;95096.84;;;10.58;51.83
56831;BME280;42713;42.676;23.352;2023-02-20T00:10:36;95072.25;;;10.47;51.86
56831;BME280;42713;42.676;23.352;2023-02-20T00:13:02;95081.50;;;10.38;52.85
56831;BME280;42713;42.676;23.352;2023-02-20T00:15:27;95086.97;;;10.36;52.56
56831;BME280;42713;42.676;23.352;2023-02-20T00:17:53;95079.00;;;10.31;53.14
56831;BME280;42713;42.676;23.352;2023-02-20T00:20:20;95077.97;;;10.32;52.91
56831;BME280;42713;42.676;23.352;2023-02-20T00:22:46;95098.47;;;10.35;53.22
56831;BME280;42713;42.676;23.352;2023-02-20T00:25:14;95090.47;;;10.30;53.37
56831;BME280;42713;42.676;23.352;2023-02-20T00:27:41;95068.06;;;10.34;53.69
56831;BME280;42713;42.676;23.352;2023-02-20T00:30:07;95068.31;;;10.33;53.65
56831;BME280;42713;42.676;23.352;2023-02-20T00:32:32;95079.00;;;10.31;53.71
56831;BME280;42713;42.676;23.352;2023-02-20T00:34:58;95087.13;;;10.18;53.68
56831;BME280;42713;42.676;23.352;2023-02-20T00:37:23;95091.78;;;10.16;54.36
56831;BME280;42713;42.676;23.352;2023-02-20T00:39:49;95071.41;;;10.18;54.18
56831;BME280;42713;42.676;23.352;2023-02-20T00:42:14;95074.34;;;10.21;54.25
56831;BME280;42713;42.676;23.352;2023-02-20T00:44:39;95077.66;;;10.17;54.66
56831;BME280;42713;42.676;23.352;2023-02-20T00:47:05;95078.91;;;10.14;54.70
56831;BME280;42713;42.676;23.352;2023-02-20T00:49:31;95075.81;;;10.17;54.52
56831;BME280;42713;42.676;23.352;2023-02-20T00:51:56;95083.69;;;10.17;54.38
56831;BME280;42713;42.676;23.352;2023-02-20T00:54:21;95079.47;;;10.16;54.85
56831;BME280;42713;42.676;23.352;2023-02-20T00:56:47;95085.41;;;10.23;54.29
56831;BME280;42713;42.676;23.352;2023-02-20T00:59:13;95085.03;;;10.20;54.58
56831;BME280;42713;42.676;23.352;2023-02-20T01:01:40;95094.47;;;10.21;54.50
56831;BME280;42713;42.676;23.352;2023-02-20T01:04:06;95106.94;;;10.02;54.93
56831;BME280;42713;42.676;23.352;2023-02-20T01:06:32;95101.00;;;9.94;55.64
56831;BME280;42713;42.676;23.352;2023-02-20T01:08:57;95112.28;;;9.95;55.42
56831;BME280;42713;42.676;23.352;2023-02-20T01:11:22;95117.72;;;9.81;55.99
56831;BME280;42713;42.676;23.352;2023-02-20T01:13:48;95119.31;;;9.82;56.61
56831;BME280;42713;42.676;23.352;2023-02-20T01:16:13;95122.03;;;9.76;56.44
56831;BME280;42713;42.676;23.352;2023-02-20T01:18:39;95126.72;;;9.74;56.46
56831;BME280;42713;42.676;23.352;2023-02-20T01:21:04;95119.75;;;9.68;56.53
56831;BME280;42713;42.676;23.352;2023-02-20T01:23:30;95128.19;;;9.70;56.57
56831;BME280;42713;42.676;23.352;2023-02-20T01:25:55;95136.59;;;9.72;56.65
56831;BME280;42713;42.676;23.352;2023-02-20T01:28:21;95141.84;;;9.72;56.59
56831;BME280;42713;42.676;23.352;2023-02-20T01:30:46;95155.25;;;9.75;56.47
56831;BME280;42713;42.676;23.352;2023-02-20T01:33:12;95150.94;;;9.81;56.83
56831;BME280;42713;42.676;23.352;2023-02-20T01:35:37;95131.59;;;9.70;56.52
56831;BME280;42713;42.676;23.352;2023-02-20T01:38:03;95149.44;;;9.73;57.14
56831;BME280;42713;42.676;23.352;2023-02-20T01:40:32;95140.00;;;9.72;57.45
56831;BME280;42713;42.676;23.352;2023-02-20T01:42:58;95133.41;;;9.70;57.37
56831;BME280;42713;42.676;23.352;2023-02-20T01:47:54;95146.59;;;9.63;58.13
56831;BME280;42713;42.676;23.352;2023-02-20T01:50:24;95151.56;;;9.53;58.38
56831;BME280;42713;42.676;23.352;2023-02-20T01:52:53;95158.16;;;9.55;58.75
56831;BME280;42713;42.676;23.352;2023-02-20T01:55:23;95152.59;;;9.52;59.24
56831;BME280;42713;42.676;23.352;2023-02-20T01:58:10;95140.00;;;9.48;59.13
56831;BME280;42713;42.676;23.352;2023-02-20T02:00:37;95194.63;;;9.38;59.72
56831;BME280;42713;42.676;23.352;2023-02-20T02:03:07;95164.94;;;9.32;60.11
56831;BME280;42713;42.676;23.352;2023-02-20T02:05:34;95167.22;;;9.29;60.00
56831;BME280;42713;42.676;23.352;2023-02-20T02:08:02;95159.22;;;9.24;60.59
56831;BME280;42713;42.676;23.352;2023-02-20T02:10:33;95160.13;;;9.17;60.74
56831;BME280;42713;42.676;23.352;2023-02-20T02:13:01;95152.59;;;9.09;60.69
56831;BME280;42713;42.676;23.352;2023-02-20T02:15:27;95149.19;;;9.09;61.13
56831;BME280;42713;42.676;23.352;2023-02-20T02:18:07;95156.50;;;9.18;60.73
56831;BME280;42713;42.676;23.352;2023-02-20T02:24:02;95168.00;;;8.99;60.53
56831;BME280;42713;42.676;23.352;2023-02-20T02:37:32;95169.84;;;8.61;60.21
56831;BME280;42713;42.676;23.352;2023-02-20T02:40:16;95169.22;;;8.47;60.71
56831;BME280;42713;42.676;23.352;2023-02-20T02:43:07;95161.00;;;8.44;60.71
56831;BME280;42713;42.676;23.352;2023-02-20T02:45:42;95168.00;;;8.43;60.47
56831;BME280;42713;42.676;23.352;2023-02-20T02:48:29;95197.09;;;8.47;60.25
56831;BME280;42713;42.676;23.352;2023-02-20T02:51:04;95186.56;;;8.35;60.67
56831;BME280;42713;42.676;23.352;2023-02-20T02:53:32;95172.88;;;8.39;60.44
56831;BME280;42713;42.676;23.352;2023-02-20T02:55:58;95193.19;;;8.37;60.54
56831;BME280;42713;42.676;23.352;2023-02-20T02:58:43;95166.03;;;8.20;61.40
56831;BME280;42713;42.676;23.352;2023-02-20T03:01:09;95181.34;;;8.35;61.02
56831;BME280;42713;42.676;23.352;2023-02-20T03:03:37;95182.94;;;8.36;61.06
56831;BME280;42713;42.676;23.352;2023-02-20T03:06:19;95218.56;;;8.49;60.86
56831;BME280;42713;42.676;23.352;2023-02-20T03:11:25;95206.59;;;8.41;61.18
56831;BME280;42713;42.676;23.352;2023-02-20T03:14:04;95210.81;;;8.42;60.94
56831;BME280;42713;42.676;23.352;2023-02-20T03:17:00;95211.59;;;8.43;60.77
56831;BME280;42713;42.676;23.352;2023-02-20T03:22:01;95202.81;;;8.37;61.16
56831;BME280;42713;42.676;23.352;2023-02-20T03:24:31;95210.59;;;8.44;61.13
56831;BME280;42713;42.676;23.352;2023-02-20T03:27:18;95208.69;;;8.32;61.00
56831;BME280;42713;42.676;23.352;2023-02-20T03:29:44;95242.53;;;8.20;61.32
56831;BME280;42713;42.676;23.352;2023-02-20T03:32:11;95229.84;;;8.24;61.61
56831;BME280;42713;42.676;23.352;2023-02-20T03:34:57;95240.69;;;8.21;61.40
56831;BME280;42713;42.676;23.352;2023-02-20T03:37:44;95242.88;;;8.24;61.10
56831;BME280;42713;42.676;23.352;2023-02-20T03:40:31;95242.72;;;8.19;60.69
56831;BME280;42713;42.676;23.352;2023-02-20T03:43:19;95224.41;;;8.25;60.58
56831;BME280;42713;42.676;23.352;2023-02-20T03:45:59;95247.56;;;8.15;60.46
56831;BME280;42713;42.676;23.352;2023-02-20T03:48:32;95237.31;;;8.20;60.34
56831;BME280;42713;42.676;23.352;2023-02-20T03:51:00;95239.09;;;8.20;60.37
56831;BME280;42713;42.676;23.352;2023-02-20T03:53:26;95242.88;;;8.24;60.44
56831;BME280;42713;42.676;23.352;2023-02-20T03:55:53;95255.34;;;8.22;60.54
56831;BME280;42713;42.676;23.352;2023-02-20T03:58:23;95245.31;;;8.19;60.17
56831;BME280;42713;42.676;23.352;2023-02-20T04:00:52;95254.25;;;8.11;60.27
56831;BME280;42713;42.676;23.352;2023-02-20T04:03:22;95250.81;;;8.10;60.46
56831;BME280;42713;42.676;23.352;2023-02-20T04:05:50;95255.44;;;8.08;59.96
56831;BME280;42713;42.676;23.352;2023-02-20T04:08:28;95240.69;;;7.95;60.68
56831;BME280;42713;42.676;23.352;2023-02-20T04:11:23;95245.88;;;8.02;60.09
56831;BME280;42713;42.676;23.352;2023-02-20T04:13:52;95253.28;;;8.05;59.89
56831;BME280;42713;42.676;23.352;2023-02-20T04:16:20;95250.66;;;8.05;60.13
56831;BME280;42713;42.676;23.352;2023-02-20T04:18:46;95255.28;;;8.03;60.14
56831;BME280;42713;42.676;23.352;2023-02-20T04:21:38;95254.66;;;8.08;59.78
56831;BME280;42713;42.676;23.352;2023-02-20T04:24:16;95253.41;;;8.10;59.90
56831;BME280;42713;42.676;23.352;2023-02-20T04:26:42;95257.13;;;8.03;59.86
56831;BME280;42713;42.676;23.352;2023-02-20T04:29:08;95278.63;;;7.98;60.17
56831;BME280;42713;42.676;23.352;2023-02-20T04:31:34;95251.72;;;7.98;60.23
56831;BME280;42713;42.676;23.352;2023-02-20T04:34:00;95260.34;;;7.98;60.06
56831;BME280;42713;42.676;23.352;2023-02-20T04:36:25;95253.53;;;7.97;60.22
56831;BME280;42713;42.676;23.352;2023-02-20T04:38:51;95258.22;;;7.88;60.62
56831;BME280;42713;42.676;23.352;2023-02-20T04:41:16;95259.00;;;7.89;61.12
56831;BME280;42713;42.676;23.352;2023-02-20T04:43:42;95245.22;;;7.82;61.05
56831;BME280;42713;42.676;23.352;2023-02-20T04:46:08;95239.00;;;7.83;61.14
56831;BME280;42713;42.676;23.352;2023-02-20T04:48:33;95247.63;;;7.83;61.20
56831;BME280;42713;42.676;23.352;2023-02-20T04:50:59;95277.56;;;7.74;61.02
56831;BME280;42713;42.676;23.352;2023-02-20T04:53:24;95256.75;;;7.67;60.86
56831;BME280;42713;42.676;23.352;2023-02-20T04:55:50;95259.94;;;7.69;60.07
56831;BME280;42713;42.676;23.352;2023-02-20T04:58:15;95261.53;;;7.70;60.08
56831;BME280;42713;42.676;23.352;2023-02-20T05:00:41;95261.97;;;7.67;60.20
56831;BME280;42713;42.676;23.352;2023-02-20T05:03:06;95287.81;;;7.69;59.28
56831;BME280;42713;42.676;23.352;2023-02-20T05:05:32;95308.47;;;7.70;59.01
56831;BME280;42713;42.676;23.352;2023-02-20T05:08:03;95320.34;;;7.66;58.10
56831;BME280;42713;42.676;23.352;2023-02-20T05:10:31;95308.34;;;7.52;57.47
56831;BME280;42713;42.676;23.352;2023-02-20T05:12:58;95339.81;;;7.57;57.77
56831;BME280;42713;42.676;23.352;2023-02-20T05:15:25;95286.91;;;7.50;57.28
56831;BME280;42713;42.676;23.352;2023-02-20T05:17:51;95340.09;;;7.42;56.62
56831;BME280;42713;42.676;23.352;2023-02-20T05:20:17;95294.59;;;7.38;56.80
56831;BME280;42713;42.676;23.352;2023-02-20T05:22:47;95297.56;;;7.41;56.26
56831;BME280;42713;42.676;23.352;2023-02-20T05:25:14;95310.19;;;7.44;55.91
56831;BME280;42713;42.676;23.352;2023-02-20T05:27:40;95286.78;;;7.38;56.47
56831;BME280;42713;42.676;23.352;2023-02-20T05:30:07;95308.84;;;7.35;56.43
56831;BME280;42713;42.676;23.352;2023-02-20T05:32:33;95296.56;;;7.42;55.85
56831;BME280;42713;42.676;23.352;2023-02-20T05:34:58;95343.47;;;7.42;56.85
56831;BME280;42713;42.676;23.352;2023-02-20T05:37:25;95342.13;;;7.33;56.88
56831;BME280;42713;42.676;23.352;2023-02-20T05:39:53;95350.13;;;7.38;56.89
56831;BME280;42713;42.676;23.352;2023-02-20T05:42:19;95363.53;;;7.42;56.91
56831;BME280;42713;42.676;23.352;2023-02-20T05:44:47;95327.47;;;7.39;57.29
56831;BME280;42713;42.676;23.352;2023-02-20T05:47:14;95329.22;;;7.52;56.93
56831;BME280;42713;42.676;23.352;2023-02-20T05:49:40;95336.84;;;7.53;57.07
56831;BME280;42713;42.676;23.352;2023-02-20T05:52:06;95345.03;;;7.57;56.87
56831;BME280;42713;42.676;23.352;2023-02-20T05:54:36;95325.94;;;7.63;57.12
56831;BME280;42713;42.676;23.352;2023-02-20T05:57:02;95344.66;;;7.53;57.91
56831;BME280;42713;42.676;23.352;2023-02-20T05:59:28;95335.03;;;7.47;58.55
56831;BME280;42713;42.676;23.352;2023-02-20T06:01:58;95335.44;;;7.51;58.10
56831;BME280;42713;42.676;23.352;2023-02-20T06:04:24;95371.34;;;7.48;58.44
56831;BME280;42713;42.676;23.352;2023-02-20T06:06:49;95353.53;;;7.39;58.54
56831;BME280;42713;42.676;23.352;2023-02-20T06:09:15;95352.13;;;7.43;58.11
56831;BME280;42713;42.676;23.352;2023-02-20T06:11:47;95338.25;;;7.49;58.34
56831;BME280;42713;42.676;23.352;2023-02-20T06:14:15;95346.03;;;7.56;57.70
56831;BME280;42713;42.676;23.352;2023-02-20T06:16:43;95399.59;;;7.52;56.04
56831;BME280;42713;42.676;23.352;2023-02-20T06:19:09;95370.69;;;7.60;55.15
56831;BME280;42713;42.676;23.352;2023-02-20T06:21:34;95350.78;;;7.72;54.23
56831;BME280;42713;42.676;23.352;2023-02-20T06:24:00;95333.75;;;7.70;54.02
56831;BME280;42713;42.676;23.352;2023-02-20T06:26:26;95371.47;;;7.67;54.73
56831;BME280;42713;42.676;23.352;2023-02-20T06:28:51;95380.31;;;7.66;54.45
56831;BME280;42713;42.676;23.352;2023-02-20T06:31:23;95374.47;;;7.64;54.14
56831;BME280;42713;42.676;23.352;2023-02-20T06:33:48;95368.06;;;7.60;54.61
56831;BME280;42713;42.676;23.352;2023-02-20T06:36:35;95370.56;;;7.87;53.98
56831;BME280;42713;42.676;23.352;2023-02-20T06:39:01;95354.94;;;7.87;54.23
56831;BME280;42713;42.676;23.352;2023-02-20T06:41:27;95372.56;;;7.91;53.95
56831;BME280;42713;42.676;23.352;2023-02-20T06:43:53;95427.31;;;7.98;54.10
56831;BME280;42713;42.676;23.352;2023-02-20T06:46:18;95402.59;;;8.01;53.13
56831;BME280;42713;42.676;23.352;2023-02-20T06:48:45;95452.78;;;7.96;53.45
56831;BME280;42713;42.676;23.352;2023-02-20T06:51:11;95363.50;;;7.94;53.09
56831;BME280;42713;42.676;23.352;2023-02-20T06:53:37;95355.28;;;7.97;52.74
56831;BME280;42713;42.676;23.352;2023-02-20T06:56:08;95372.72;;;7.97;52.46
56831;BME280;42713;42.676;23.352;2023-02-20T06:58:34;95396.41;;;7.95;52.78
56831;BME280;42713;42.676;23.352;2023-02-20T07:01:00;95365.50;;;7.99;52.41
56831;BME280;42713;42.676;23.352;2023-02-20T07:03:26;95379.56;;;7.91;53.30
56831;BME280;42713;42.676;23.352;2023-02-20T07:05:51;95379.16;;;7.94;52.64
56831;BME280;42713;42.676;23.352;2023-02-20T07:08:16;95365.50;;;7.99;52.08
56831;BME280;42713;42.676;23.352;2023-02-20T07:10:42;95384.00;;;7.90;51.99
56831;BME280;42713;42.676;23.352;2023-02-20T07:13:07;95368.09;;;7.99;51.82
56831;BME280;42713;42.676;23.352;2023-02-20T07:15:33;95438.97;;;7.89;51.13
56831;BME280;42713;42.676;23.352;2023-02-20T07:17:58;95414.09;;;7.86;51.20
56831;BME280;42713;42.676;23.352;2023-02-20T07:20:24;95413.31;;;7.86;50.63
56831;BME280;42713;42.676;23.352;2023-02-20T07:22:51;95415.84;;;7.99;50.42
56831;BME280;42713;42.676;23.352;2023-02-20T07:25:16;95384.88;;;8.09;49.12
56831;BME280;42713;42.676;23.352;2023-02-20T07:27:42;95387.09;;;8.13;49.60
56831;BME280;42713;42.676;23.352;2023-02-20T07:30:08;95421.19;;;8.18;48.76
56831;BME280;42713;42.676;23.352;2023-02-20T07:32:33;95396.50;;;8.14;48.45
56831;BME280;42713;42.676;23.352;2023-02-20T07:34:59;95424.63;;;8.12;47.47
56831;BME280;42713;42.676;23.352;2023-02-20T07:37:25;95396.53;;;8.07;47.59
56831;BME280;42713;42.676;23.352;2023-02-20T07:39:51;95400.00;;;8.01;47.43
56831;BME280;42713;42.676;23.352;2023-02-20T07:42:16;95405.00;;;8.02;48.18
56831;BME280;42713;42.676;23.352;2023-02-20T07:44:43;95499.31;;;8.06;46.82
56831;BME280;42713;42.676;23.352;2023-02-20T07:47:11;95429.13;;;7.91;46.97
56831;BME280;42713;42.676;23.352;2023-02-20T07:49:37;95439.38;;;7.92;46.91
56831;BME280;42713;42.676;23.352;2023-02-20T07:52:02;95467.47;;;7.84;47.03
56831;BME280;42713;42.676;23.352;2023-02-20T07:54:28;95524.69;;;7.72;47.00
56831;BME280;42713;42.676;23.352;2023-02-20T07:56:54;95418.56;;;7.72;47.29
56831;BME280;42713;42.676;23.352;2023-02-20T07:59:20;95428.97;;;7.79;47.46
56831;BME280;42713;42.676;23.352;2023-02-20T08:01:46;95428.97;;;7.86;47.69
56831;BME280;42713;42.676;23.352;2023-02-20T08:04:11;95433.34;;;7.85;47.21
56831;BME280;42713;42.676;23.352;2023-02-20T08:06:37;95454.41;;;7.97;47.36
56831;BME280;42713;42.676;23.352;2023-02-20T08:09:02;95445.56;;;7.98;47.14
56831;BME280;42713;42.676;23.352;2023-02-20T08:11:34;95537.25;;;8.02;46.99
56831;BME280;42713;42.676;23.352;2023-02-20T08:14:02;95445.34;;;8.00;46.94
56831;BME280;42713;42.676;23.352;2023-02-20T08:16:28;95426.13;;;7.94;47.29
56831;BME280;42713;42.676;23.352;2023-02-20T08:18:54;95467.00;;;8.00;46.74
56831;BME280;42713;42.676;23.352;2023-02-20T08:21:20;95455.19;;;7.98;46.19
56831;BME280;42713;42.676;23.352;2023-02-20T08:23:46;95460.25;;;7.86;45.36
56831;BME280;42713;42.676;23.352;2023-02-20T08:26:12;95433.16;;;7.93;46.36
56831;BME280;42713;42.676;23.352;2023-02-20T08:28:37;95424.25;;;8.08;46.24
56831;BME280;42713;42.676;23.352;2023-02-20T08:31:03;95442.84;;;8.18;46.07
56831;BME280;42713;42.676;23.352;2023-02-20T08:33:28;95425.63;;;8.10;45.99
56831;BME280;42713;42.676;23.352;2023-02-20T08:35:54;95441.47;;;8.16;45.81
56831;BME280;42713;42.676;23.352;2023-02-20T08:40:56;95487.84;;;8.07;45.97
56831;BME280;42713;42.676;23.352;2023-02-20T08:43:23;95445.72;;;8.10;46.24
56831;BME280;42713;42.676;23.352;2023-02-20T08:45:48;95433.00;;;8.20;46.07
56831;BME280;42713;42.676;23.352;2023-02-20T08:48:14;95437.59;;;8.25;45.56
56831;BME280;42713;42.676;23.352;2023-02-20T08:50:39;95493.38;;;8.31;45.07
56831;BME280;42713;42.676;23.352;2023-02-20T08:53:05;95440.38;;;8.30;46.15
56831;BME280;42713;42.676;23.352;2023-02-20T08:55:31;95437.75;;;8.30;45.51
56831;BME280;42713;42.676;23.352;2023-02-20T08:57:56;95452.59;;;8.36;45.38
56831;BME280;42713;42.676;23.352;2023-02-20T09:00:22;95444.59;;;8.31;44.98
56831;BME280;42713;42.676;23.352;2023-02-20T09:02:47;95488.31;;;8.36;44.72
56831;BME280;42713;42.676;23.352;2023-02-20T09:05:14;95479.28;;;8.38;44.58
56831;BME280;42713;42.676;23.352;2023-02-20T09:07:40;95426.53;;;8.30;44.54
56831;BME280;42713;42.676;23.352;2023-02-20T09:10:06;95456.81;;;8.37;44.33
56831;BME280;42713;42.676;23.352;2023-02-20T09:12:32;95432.88;;;8.47;44.34
56831;BME280;42713;42.676;23.352;2023-02-20T09:14:57;95426.38;;;8.56;44.03
56831;BME280;42713;42.676;23.352;2023-02-20T09:17:27;95418.78;;;8.55;43.60
56831;BME280;42713;42.676;23.352;2023-02-20T09:19:52;95497.38;;;8.72;44.62
56831;BME280;42713;42.676;23.352;2023-02-20T09:22:22;95414.94;;;8.83;44.83
56831;BME280;42713;42.676;23.352;2023-02-20T09:24:48;95451.28;;;8.84;44.25
56831;BME280;42713;42.676;23.352;2023-02-20T09:27:14;95408.53;;;8.79;44.27
56831;BME280;42713;42.676;23.352;2023-02-20T09:29:39;95409.19;;;8.74;44.83
56831;BME280;42713;42.676;23.352;2023-02-20T09:32:07;95427.94;;;8.64;44.35
56831;BME280;42713;42.676;23.352;2023-02-20T09:34:33;95437.81;;;8.62;45.31
56831;BME280;42713;42.676;23.352;2023-02-20T09:36:59;95424.84;;;8.74;46.17
56831;BME280;42713;42.676;23.352;2023-02-20T09:39:24;95486.53;;;8.75;45.34
56831;BME280;42713;42.676;23.352;2023-02-20T09:46:59;95444.78;;;8.68;45.78
56831;BME280;42713;42.676;23.352;2023-02-20T09:49:31;95408.38;;;8.74;45.81
56831;BME280;42713;42.676;23.352;2023-02-20T09:52:00;95428.66;;;8.78;46.12
56831;BME280;42713;42.676;23.352;2023-02-20T09:54:48;95468.78;;;8.84;45.36
56831;BME280;42713;42.676;23.352;2023-02-20T09:57:18;95430.34;;;8.66;46.22
56831;BME280;42713;42.676;23.352;2023-02-20T09:59:49;95494.78;;;8.72;45.52
56831;BME280;42713;42.676;23.352;2023-02-20T10:04:56;95421.28;;;8.68;44.70
56831;BME280;42713;42.676;23.352;2023-02-20T10:07:35;95424.91;;;8.67;45.22
56831;BME280;42713;42.676;23.352;2023-02-20T10:10:21;95479.06;;;8.79;43.54
56831;BME280;42713;42.676;23.352;2023-02-20T10:13:04;95447.31;;;8.82;43.36
56831;BME280;42713;42.676;23.352;2023-02-20T10:15:57;95439.09;;;8.78;43.91
56831;BME280;42713;42.676;23.352;2023-02-20T10:18:29;95425.53;;;8.88;43.90
56831;BME280;42713;42.676;23.352;2023-02-20T10:21:21;95414.41;;;8.99;43.09
56831;BME280;42713;42.676;23.352;2023-02-20T10:23:57;95421.44;;;8.99;42.98
56831;BME280;42713;42.676;23.352;2023-02-20T10:26:29;95441.75;;;8.97;42.54
56831;BME280;42713;42.676;23.352;2023-02-20T10:29:13;95387.19;;;9.07;41.81
56831;BME280;42713;42.676;23.352;2023-02-20T10:31:47;95422.50;;;9.16;41.18
56831;BME280;42713;42.676;23.352;2023-02-20T10:34:21;95462.47;;;9.17;42.12
56831;BME280;42713;42.676;23.352;2023-02-20T10:36:51;95393.97;;;9.15;41.14
56831;BME280;42713;42.676;23.352;2023-02-20T10:39:20;95405.56;;;9.19;41.29
56831;BME280;42713;42.676;23.352;2023-02-20T10:44:26;95403.97;;;9.37;40.92
56831;BME280;42713;42.676;23.352;2023-02-20T10:49:55;95405.16;;;9.59;41.02
56831;BME280;42713;42.676;23.352;2023-02-20T10:52:30;95385.53;;;9.69;41.33
56831;BME280;42713;42.676;23.352;2023-02-20T10:55:11;95453.91;;;9.72;39.95
56831;BME280;42713;42.676;23.352;2023-02-20T11:00:29;95387.91;;;9.70;39.39
56831;BME280;42713;42.676;23.352;2023-02-20T11:05:54;95374.34;;;9.80;39.12
56831;BME280;42713;42.676;23.352;2023-02-20T11:08:22;95362.19;;;9.86;38.36
56831;BME280;42713;42.676;23.352;2023-02-20T11:10:48;95372.06;;;9.84;39.37
56831;BME280;42713;42.676;23.352;2023-02-20T11:13:18;95378.13;;;9.84;39.88
56831;BME280;42713;42.676;23.352;2023-02-20T11:15:45;95359.03;;;9.95;39.25
56831;BME280;42713;42.676;23.352;2023-02-20T11:18:34;95373.63;;;10.03;39.38
56831;BME280;42713;42.676;23.352;2023-02-20T11:21:00;95345.41;;;10.05;40.36
56831;BME280;42713;42.676;23.352;2023-02-20T11:23:37;95344.06;;;10.03;39.88
56831;BME280;42713;42.676;23.352;2023-02-20T11:26:25;95362.75;;;10.18;40.42
56831;BME280;42713;42.676;23.352;2023-02-20T11:29:12;95336.91;;;10.22;39.94
56831;BME280;42713;42.676;23.352;2023-02-20T11:31:42;95381.31;;;10.17;39.34
56831;BME280;42713;42.676;23.352;2023-02-20T11:34:23;95360.94;;;10.19;39.75
56831;BME280;42713;42.676;23.352;2023-02-20T11:36:54;95341.97;;;10.35;40.21
56831;BME280;42713;42.676;23.352;2023-02-20T11:39:29;95350.19;;;10.39;39.52
56831;BME280;42713;42.676;23.352;2023-02-20T11:42:10;95352.03;;;10.50;39.70
56831;BME280;42713;42.676;23.352;2023-02-20T11:44:36;95343.59;;;10.48;38.55
56831;BME280;42713;42.676;23.352;2023-02-20T11:49:34;95346.47;;;10.58;38.74
56831;BME280;42713;42.676;23.352;2023-02-20T11:52:28;95340.88;;;10.67;38.19
56831;BME280;42713;42.676;23.352;2023-02-20T11:55:20;95380.66;;;10.76;38.59
56831;BME280;42713;42.676;23.352;2023-02-20T11:57:47;95321.63;;;10.73;38.27
56831;BME280;42713;42.676;23.352;2023-02-20T12:02:53;95356.81;;;10.53;38.92
56831;BME280;42713;42.676;23.352;2023-02-20T12:05:20;95352.06;;;10.62;38.47
56831;BME280;42713;42.676;23.352;2023-02-20T12:10:42;95317.75;;;10.64;38.45
56831;BME280;42713;42.676;23.352;2023-02-20T12:13:12;95323.13;;;10.81;38.27
56831;BME280;42713;42.676;23.352;2023-02-20T12:15:39;95339.97;;;10.73;38.01
56831;BME280;42713;42.676;23.352;2023-02-20T12:18:35;95325.50;;;10.70;37.94
56831;BME280;42713;42.676;23.352;2023-02-20T12:21:15;95372.81;;;10.87;37.37
56831;BME280;42713;42.676;23.352;2023-02-20T12:29:14;95343.97;;;10.99;36.96
56831;BME280;42713;42.676;23.352;2023-02-20T12:32:02;95324.59;;;11.00;36.86
56831;BME280;42713;42.676;23.352;2023-02-20T12:45:54;95319.16;;;11.43;36.93
56831;BME280;42713;42.676;23.352;2023-02-20T12:48:28;95323.25;;;11.50;36.09
56831;BME280;42713;42.676;23.352;2023-02-20T12:51:04;95346.53;;;11.35;36.92
56831;BME280;42713;42.676;23.352;2023-02-20T13:01:32;95327.38;;;11.75;36.22
56831;BME280;42713;42.676;23.352;2023-02-20T13:04:02;95346.41;;;11.82;35.40
56831;BME280;42713;42.676;23.352;2023-02-20T13:06:40;95335.44;;;11.86;35.42
56831;BME280;42713;42.676;23.352;2023-02-20T13:09:17;95338.84;;;11.86;35.19
56831;BME280;42713;42.676;23.352;2023-02-20T13:11:47;95358.66;;;12.06;34.75
56831;BME280;42713;42.676;23.352;2023-02-20T13:16:46;95345.75;;;11.75;34.89
56831;BME280;42713;42.676;23.352;2023-02-20T13:19:27;95348.13;;;11.89;35.79
56831;BME280;42713;42.676;23.352;2023-02-20T13:21:55;95360.59;;;12.10;35.03
56831;BME280;42713;42.676;23.352;2023-02-20T13:26:52;95320.03;;;12.18;35.27
56831;BME280;42713;42.676;23.352;2023-02-20T13:29:25;95340.34;;;12.40;34.79
56831;BME280;42713;42.676;23.352;2023-02-20T13:31:57;95316.44;;;12.41;34.43
56831;BME280;42713;42.676;23.352;2023-02-20T13:36:56;95358.63;;;12.35;34.80
56831;BME280;42713;42.676;23.352;2023-02-20T13:39:48;95347.97;;;12.41;35.13
56831;BME280;42713;42.676;23.352;2023-02-20T13:42:27;95358.41;;;12.70;34.50
56831;BME280;42713;42.676;23.352;2023-02-20T13:44:53;95379.38;;;12.65;34.80
56831;BME280;42713;42.676;23.352;2023-02-20T13:47:34;95372.84;;;12.68;35.03
56831;BME280;42713;42.676;23.352;2023-02-20T13:50:19;95373.41;;;12.87;34.25
56831;BME280;42713;42.676;23.352;2023-02-20T13:52:47;95338.50;;;12.74;35.20
56831;BME280;42713;42.676;23.352;2023-02-20T13:55:22;95343.22;;;12.72;34.95
56831;BME280;42713;42.676;23.352;2023-02-20T13:57:53;95315.63;;;12.92;34.64
56831;BME280;42713;42.676;23.352;2023-02-20T14:02:45;95345.28;;;12.53;34.90
56831;BME280;42713;42.676;23.352;2023-02-20T14:05:26;95348.25;;;12.57;35.22
56831;BME280;42713;42.676;23.352;2023-02-20T14:07:53;95345.34;;;12.58;35.11
56831;BME280;42713;42.676;23.352;2023-02-20T14:10:26;95356.19;;;12.79;35.10
56831;BME280;42713;42.676;23.352;2023-02-20T14:13:01;95346.81;;;12.83;34.80
56831;BME280;42713;42.676;23.352;2023-02-20T14:15:30;95366.28;;;13.04;34.77
56831;BME280;42713;42.676;23.352;2023-02-20T14:17:57;95352.31;;;13.04;35.00
56831;BME280;42713;42.676;23.352;2023-02-20T14:20:36;95345.25;;;13.04;35.10
56831;BME280;42713;42.676;23.352;2023-02-20T14:23:20;95348.91;;;13.03;34.66
56831;BME280;42713;42.676;23.352;2023-02-20T14:26:02;95369.81;;;12.76;34.96
56831;BME280;42713;42.676;23.352;2023-02-20T14:28:33;95359.50;;;13.08;34.81
56831;BME280;42713;42.676;23.352;2023-02-20T14:31:26;95361.00;;;13.21;34.50
56831;BME280;42713;42.676;23.352;2023-02-20T14:33:59;95382.25;;;13.20;34.92
56831;BME280;42713;42.676;23.352;2023-02-20T14:39:15;95375.78;;;12.37;36.25
56831;BME280;42713;42.676;23.352;2023-02-20T14:41:56;95364.66;;;12.18;37.04